Time;durP1;ratioP1;P1;durP2;ratioP2;P2;SDS_P1;SDS_P2;PMS_P1;PMS_P2;Temp;Humidity;BMP_temperature;BMP_pressure;BME280_temperature;BME280_humidity;BME280_pressure;Samples;Min_cycle;Max_cycle;Signal;HPM_P1;HPM_P2
2022/03/25 00:00:23;;;;;;;0.50;0.50;;;;;;;8.68;41.97;97759.91;29395;242;63004;-65
2022/03/25 00:00:54;;;;;;;0.50;0.50;;;;;;;8.67;42.00;97756.38;29395;196;63009;-64
2022/03/25 00:01:25;;;;;;;0.50;0.50;;;;;;;8.67;42.02;97761.78;29395;205;63004;-64
2022/03/25 00:01:58;;;;;;;0.50;0.50;;;;;;;8.67;42.01;97759.09;29395;264;63009;-65
2022/03/25 00:02:29;;;;;;;0.50;0.50;;;;;;;8.65;41.51;97755.84;29395;214;63005;-66
2022/03/25 00:03:02;;;;;;;0.50;0.50;;;;;;;8.66;41.90;97757.44;29394;231;64009;-64
2022/03/25 00:03:37;;;;;;;0.50;0.50;;;;;;;8.67;41.79;97759.09;29395;246;63005;-60
2022/03/25 00:04:08;;;;;;;0.50;0.50;;;;;;;8.66;42.09;97762.88;29395;307;63009;-66
2022/03/25 00:04:40;;;;;;;0.50;0.50;;;;;;;8.66;41.91;97768.28;29395;239;63005;-64
2022/03/25 00:05:11;;;;;;;0.50;0.50;;;;;;;8.66;42.23;97757.44;29394;262;64022;-64
2022/03/25 00:05:42;;;;;;;0.50;0.50;;;;;;;8.66;42.17;97762.09;29395;209;63007;-66
2022/03/25 00:06:15;;;;;;;0.50;0.50;;;;;;;8.66;42.13;97765.56;29395;277;63009;-64
2022/03/25 00:06:47;;;;;;;0.50;0.50;;;;;;;8.65;42.20;97761.25;29395;234;63004;-66
2022/03/25 00:07:18;;;;;;;0.50;0.50;;;;;;;8.65;42.29;97761.25;29395;220;63009;-64
2022/03/25 00:07:49;;;;;;;0.50;0.50;;;;;;;8.65;42.25;97763.97;29395;224;63000;-63
2022/03/25 00:08:22;;;;;;;0.50;0.50;;;;;;;8.64;42.28;97765.03;29395;199;63008;-64
2022/03/25 00:08:54;;;;;;;0.50;0.50;;;;;;;8.64;42.11;97759.63;29395;307;63004;-66
2022/03/25 00:09:25;;;;;;;0.50;0.50;;;;;;;8.64;42.20;97766.94;29395;331;63009;-65
2022/03/25 00:09:56;;;;;;;0.50;0.50;;;;;;;8.63;41.88;97768.81;29395;229;63005;-64
2022/03/25 00:10:28;;;;;;;0.50;0.50;;;;;;;8.63;42.20;97768.81;29394;233;64009;-65
2022/03/25 00:10:59;;;;;;;0.50;0.50;;;;;;;8.62;42.14;97761.78;29395;202;63005;-63
2022/03/25 00:11:30;;;;;;;0.40;0.40;;;;;;;8.62;42.14;97766.38;29395;197;63009;-59
2022/03/25 00:12:04;;;;;;;0.50;0.50;;;;;;;8.60;41.96;97765.81;29395;244;63005;-64
2022/03/25 00:12:35;;;;;;;0.50;0.50;;;;;;;8.59;42.30;97764.19;29394;236;64009;-63
2022/03/25 00:13:07;;;;;;;0.50;0.50;;;;;;;8.60;42.33;97763.09;29395;281;63004;-65
2022/03/25 00:13:39;;;;;;;0.50;0.50;;;;;;;8.58;42.26;97766.06;29395;217;63009;-65
2022/03/25 00:14:11;;;;;;;0.50;0.50;;;;;;;8.58;42.40;97766.06;29395;207;63004;-66
2022/03/25 00:14:42;;;;;;;0.50;0.50;;;;;;;8.57;42.36;97766.31;29395;212;63009;-64
2022/03/25 00:15:14;;;;;;;0.50;0.50;;;;;;;8.55;42.40;97765.78;29395;206;63004;-65
2022/03/25 00:15:45;;;;;;;0.50;0.50;;;;;;;8.56;42.54;97767.41;29395;220;63008;-65
2022/03/25 00:16:17;;;;;;;0.50;0.50;;;;;;;8.55;42.51;97765.78;29394;411;64005;-65
2022/03/25 00:16:49;;;;;;;0.50;0.50;;;;;;;8.54;42.66;97764.97;29395;235;63009;-64
2022/03/25 00:17:20;;;;;;;0.50;0.50;;;;;;;8.53;42.71;97768.72;29394;220;64005;-64
2022/03/25 00:17:55;;;;;;;0.50;0.50;;;;;;;8.53;42.66;97763.31;29395;374;63009;-66
2022/03/25 00:18:26;;;;;;;0.50;0.50;;;;;;;8.53;42.55;97770.63;29395;215;63005;-59
2022/03/25 00:18:57;;;;;;;0.50;0.50;;;;;;;8.52;43.00;97769.81;29395;277;63009;-65
2022/03/25 00:19:29;;;;;;;0.50;0.50;;;;;;;8.52;42.66;97761.69;29395;212;63005;-64
2022/03/25 00:20:00;;;;;;;0.50;0.50;;;;;;;8.51;43.06;97760.06;29395;223;63009;-64
2022/03/25 00:20:31;;;;;;;0.50;0.50;;;;;;;8.51;42.97;97764.66;29394;241;64004;-64
2022/03/25 00:21:03;;;;;;;0.50;0.50;;;;;;;8.50;43.19;97769.25;29395;230;63009;-65
2022/03/25 00:21:35;;;;;;;0.50;0.50;;;;;;;8.50;43.24;97769.25;29395;269;63004;-66
2022/03/25 00:22:06;;;;;;;0.50;0.50;;;;;;;8.49;43.58;97770.31;29395;234;63009;-65
2022/03/25 00:22:38;;;;;;;0.50;0.50;;;;;;;8.49;43.64;97769.50;29395;310;63004;-64
2022/03/25 00:23:09;;;;;;;0.50;0.50;;;;;;;8.48;43.83;97771.38;29395;232;63008;-64
2022/03/25 00:23:40;;;;;;;0.50;0.50;;;;;;;8.49;43.99;97773.03;29394;223;64005;-60
2022/03/25 00:24:11;;;;;;;0.50;0.50;;;;;;;8.48;43.74;97767.87;29394;327;64009;-65
2022/03/25 00:24:42;;;;;;;0.50;0.50;;;;;;;8.47;43.96;97764.34;29395;203;63005;-64
2022/03/25 00:25:14;;;;;;;0.50;0.50;;;;;;;8.46;43.78;97762.72;29394;203;64009;-64
2022/03/25 00:25:46;;;;;;;0.50;0.50;;;;;;;8.46;43.62;97772.72;29395;210;63005;-64
2022/03/25 00:26:17;;;;;;;0.50;0.50;;;;;;;8.45;43.79;97771.91;29395;197;63009;-59
2022/03/25 00:26:49;;;;;;;0.50;0.50;;;;;;;8.45;43.91;97762.97;29395;365;63005;-65
2022/03/25 00:27:20;;;;;;;0.50;0.50;;;;;;;8.45;43.92;97766.50;29395;212;63021;-65
2022/03/25 00:27:52;;;;;;;0.50;0.50;;;;;;;8.44;43.96;97764.88;29395;215;63000;-64
2022/03/25 00:28:23;;;;;;;0.50;0.50;;;;;;;8.44;44.19;97764.88;29395;222;63009;-65
2022/03/25 00:28:55;;;;;;;0.50;0.50;;;;;;;8.45;44.18;97766.50;29395;302;63004;-65
2022/03/25 00:29:26;;;;;;;0.50;0.50;;;;;;;8.44;44.22;97770.28;29395;238;63009;-66
2022/03/25 00:29:57;;;;;;;0.50;0.50;;;;;;;8.44;44.16;97770.28;29394;349;64004;-64
2022/03/25 00:30:28;;;;;;;0.50;0.50;;;;;;;8.43;44.01;97763.22;29395;202;63008;-64
2022/03/25 00:31:00;;;;;;;0.50;0.50;;;;;;;8.43;43.85;97763.22;29395;226;63004;-64
2022/03/25 00:31:32;;;;;;;0.50;0.50;;;;;;;8.43;43.95;97763.22;29395;203;63009;-65
2022/03/25 00:32:05;;;;;;;0.50;0.50;;;;;;;8.43;44.05;97763.22;29395;209;63005;-65
2022/03/25 00:32:37;;;;;;;0.50;0.50;;;;;;;8.43;43.67;97757.81;29395;205;63009;-65
2022/03/25 00:33:09;;;;;;;0.50;0.50;;;;;;;8.44;43.60;97764.88;29395;246;63005;-59
2022/03/25 00:33:42;;;;;;;0.50;0.50;;;;;;;8.44;43.41;97764.88;29395;239;63014;-59
2022/03/25 00:34:13;;;;;;;0.50;0.50;;;;;;;8.45;43.32;97755.69;29395;232;63005;-64
2022/03/25 00:34:44;;;;;;;0.50;0.50;;;;;;;8.44;43.08;97759.44;29394;196;64009;-65
2022/03/25 00:35:17;;;;;;;0.50;0.50;;;;;;;8.45;43.07;97763.78;29395;202;63005;-65
2022/03/25 00:35:48;;;;;;;0.50;0.50;;;;;;;8.45;42.98;97750.25;29394;288;64009;-59
2022/03/25 00:36:23;;;;;;;0.50;0.50;;;;;;;8.47;42.83;97758.94;29395;253;63004;-66
2022/03/25 00:36:54;;;;;;;0.50;0.50;;;;;;;8.47;42.75;97752.72;29395;267;63009;-65
2022/03/25 00:37:25;;;;;;;0.50;0.50;;;;;;;8.47;42.74;97758.13;29395;218;63004;-66
2022/03/25 00:38:00;;;;;;;0.50;0.50;;;;;;;8.46;42.68;97759.19;29395;221;63008;-65
2022/03/25 00:38:32;;;;;;;0.43;0.43;;;;;;;8.46;42.75;97757.31;29394;208;64004;-63
2022/03/25 00:39:04;;;;;;;0.50;0.50;;;;;;;8.47;43.11;97753.53;29394;219;64009;-65
2022/03/25 00:39:35;;;;;;;0.50;0.50;;;;;;;8.47;42.85;97760.81;29395;204;63004;-64
2022/03/25 00:40:07;;;;;;;0.50;0.50;;;;;;;8.46;43.06;97751.91;29395;210;63009;-64
2022/03/25 00:40:39;;;;;;;0.50;0.50;;;;;;;8.46;42.90;97754.59;29395;218;63005;-65
2022/03/25 00:41:12;;;;;;;0.50;0.50;;;;;;;8.47;42.89;97752.72;29395;196;63009;-65
2022/03/25 00:41:44;;;;;;;0.50;0.50;;;;;;;8.46;42.71;97751.91;29395;202;63005;-64
2022/03/25 00:42:16;;;;;;;0.50;0.50;;;;;;;8.46;42.77;97751.09;29395;297;63009;-64
2022/03/25 00:42:47;;;;;;;0.50;0.50;;;;;;;8.46;42.64;97745.66;29395;212;63005;-65
2022/03/25 00:43:23;;;;;;;0.50;0.50;;;;;;;8.45;42.84;97755.69;29395;281;63023;-63
2022/03/25 00:43:55;;;;;;;0.50;0.50;;;;;;;8.45;42.61;97750.25;29394;215;63994;-67
2022/03/25 00:44:27;;;;;;;0.50;0.50;;;;;;;8.44;42.84;97748.62;29395;267;63009;-63
2022/03/25 00:45:01;;;;;;;0.50;0.50;;;;;;;8.44;42.71;97756.75;29395;216;63004;-65
2022/03/25 00:45:33;;;;;;;0.50;0.50;;;;;;;8.43;42.89;97752.41;29395;207;63008;-64
2022/03/25 00:46:05;;;;;;;0.50;0.50;;;;;;;8.42;43.19;97749.97;29395;221;63004;-64
2022/03/25 00:46:36;;;;;;;0.50;0.50;;;;;;;8.42;43.82;97752.66;29395;246;63009;-64
2022/03/25 00:47:09;;;;;;;0.50;0.50;;;;;;;8.40;43.89;97748.34;29394;336;64005;-64
2022/03/25 00:47:42;;;;;;;0.50;0.50;;;;;;;8.40;44.11;97755.63;29395;215;63009;-65
2022/03/25 00:48:14;;;;;;;0.50;0.50;;;;;;;8.38;43.84;97755.88;29395;202;63005;-66
2022/03/25 00:48:46;;;;;;;0.50;0.50;;;;;;;8.38;43.91;97747.78;29395;239;63009;-65
2022/03/25 00:49:18;;;;;;;0.50;0.50;;;;;;;8.38;43.52;97752.37;29395;290;63005;-64
2022/03/25 00:49:50;;;;;;;0.50;0.50;;;;;;;8.36;43.71;97744.50;29396;207;63009;-65
2022/03/25 00:50:23;;;;;;;0.50;0.50;;;;;;;8.36;43.48;97758.03;29394;205;64005;-65
2022/03/25 00:50:55;;;;;;;0.50;0.50;;;;;;;8.35;43.60;97750.16;29394;212;64009;-64
2022/03/25 00:51:28;;;;;;;0.50;0.50;;;;;;;8.34;43.55;97748.53;29395;196;63004;-64
2022/03/25 00:52:03;;;;;;;0.50;0.50;;;;;;;8.32;43.86;97745.25;29395;197;63009;-65
2022/03/25 00:52:35;;;;;;;0.50;0.50;;;;;;;8.31;43.76;97754.47;29395;215;63006;-64
2022/03/25 00:53:13;;;;;;;0.50;0.50;;;;;;;8.30;44.13;97748.22;29395;207;63008;-64
2022/03/25 00:53:45;;;;;;;0.50;0.50;;;;;;;8.29;44.05;97749.31;29395;208;63004;-65
2022/03/25 00:54:18;;;;;;;0.50;0.50;;;;;;;8.29;43.88;97745.78;29395;209;63009;-65
2022/03/25 00:54:50;;;;;;;0.50;0.50;;;;;;;8.28;43.75;97739.56;29395;229;63005;-66
2022/03/25 00:55:21;;;;;;;0.50;0.50;;;;;;;8.28;43.79;97744.16;29395;292;63009;-64
2022/03/25 00:55:52;;;;;;;0.50;0.50;;;;;;;8.28;43.61;97746.84;29395;218;63005;-65
2022/03/25 00:56:24;;;;;;;0.50;0.50;;;;;;;8.28;43.65;97752.28;29394;202;64009;-65
2022/03/25 00:56:55;;;;;;;0.50;0.50;;;;;;;8.28;43.61;97741.44;29395;208;63005;-65
2022/03/25 00:57:30;;;;;;;0.50;0.50;;;;;;;8.26;43.80;97743.59;29395;296;63009;-65
2022/03/25 00:58:01;;;;;;;0.50;0.50;;;;;;;8.26;43.53;97744.41;29395;228;63008;-65
2022/03/25 00:58:33;;;;;;;0.50;0.50;;;;;;;8.25;43.68;97744.66;29395;198;63009;-59
2022/03/25 00:59:04;;;;;;;0.50;0.50;;;;;;;8.26;43.71;97738.19;29395;280;63004;-65
2022/03/25 00:59:35;;;;;;;0.50;0.50;;;;;;;8.25;43.91;97745.47;29395;212;63009;-64
2022/03/25 01:00:07;;;;;;;0.50;0.50;;;;;;;8.25;43.59;97744.66;29395;206;63004;-65
2022/03/25 01:00:42;;;;;;;0.50;0.50;;;;;;;8.24;43.69;97737.63;29395;217;63008;-64
2022/03/25 01:01:15;;;;;;;0.50;0.50;;;;;;;8.24;43.83;97743.84;29394;209;64004;-66
2022/03/25 01:01:46;;;;;;;0.50;0.50;;;;;;;8.25;43.94;97744.66;29394;213;64009;-64
2022/03/25 01:02:17;;;;;;;0.50;0.50;;;;;;;8.24;43.79;97735.75;29395;215;63005;-65
2022/03/25 01:02:49;;;;;;;0.50;0.50;;;;;;;8.24;43.95;97743.03;29395;317;63009;-64
2022/03/25 01:03:21;;;;;;;0.50;0.50;;;;;;;8.25;43.77;97739.25;29395;304;63005;-63
2022/03/25 01:03:52;;;;;;;0.50;0.50;;;;;;;8.25;43.78;97733.84;29395;205;63009;-66
2022/03/25 01:04:25;;;;;;;0.50;0.50;;;;;;;8.25;43.50;97731.16;29395;230;63005;-66
2022/03/25 01:05:00;;;;;;;0.55;0.55;;;;;;;8.25;43.56;97739.25;29395;237;63009;-59
2022/03/25 01:05:34;;;;;;;0.50;0.50;;;;;;;8.24;43.68;97740.34;29395;242;63001;-65
2022/03/25 01:06:06;;;;;;;0.50;0.50;;;;;;;8.24;43.96;97743.03;29395;223;63009;-65
2022/03/25 01:06:37;;;;;;;0.50;0.50;;;;;;;8.23;43.77;97730.59;29395;234;63004;-64
2022/03/25 01:07:09;;;;;;;0.50;0.50;;;;;;;8.23;43.77;97736.00;29394;205;64009;-64
2022/03/25 01:07:40;;;;;;;0.50;0.50;;;;;;;8.22;43.80;97734.38;29395;202;63016;-65
2022/03/25 01:08:11;;;;;;;0.50;0.50;;;;;;;8.21;43.84;97743.53;29395;210;63008;-66
2022/03/25 01:08:42;;;;;;;0.50;0.50;;;;;;;8.22;43.78;97739.78;29395;204;63004;-66
2022/03/25 01:09:14;;;;;;;0.50;0.50;;;;;;;8.21;43.63;97732.72;29395;266;63009;-64
2022/03/25 01:09:45;;;;;;;0.50;0.50;;;;;;;8.20;43.48;97734.63;29395;233;63005;-64
2022/03/25 01:10:27;;;;;;;0.50;0.50;;;;;;;8.20;43.59;97737.31;29395;256;63009;-65
2022/03/25 01:10:58;;;;;;;0.50;0.50;;;;;;;8.20;43.54;97736.50;29395;290;63005;-65
2022/03/25 01:11:30;;;;;;;0.50;0.50;;;;;;;8.20;43.65;97733.81;29395;233;63009;-64
2022/03/25 01:12:03;;;;;;;0.50;0.50;;;;;;;8.18;43.41;97738.66;29395;231;63005;-64
2022/03/25 01:12:34;;;;;;;0.50;0.50;;;;;;;8.18;43.72;97727.84;29394;204;64009;-65
2022/03/25 01:13:06;;;;;;;0.50;0.50;;;;;;;8.17;43.66;97737.00;29395;202;63004;-65
2022/03/25 01:13:37;;;;;;;0.50;0.50;;;;;;;8.17;43.96;97737.00;29395;378;63009;-65
2022/03/25 01:14:09;;;;;;;0.50;0.50;;;;;;;8.16;43.83;97729.97;29395;199;63004;-65
2022/03/25 01:14:40;;;;;;;0.50;0.50;;;;;;;8.16;43.68;97735.38;29395;225;63009;-65
2022/03/25 01:15:11;;;;;;;0.50;0.50;;;;;;;8.17;43.50;97731.59;29395;196;63004;-66
2022/03/25 01:15:43;;;;;;;0.60;0.60;;;;;;;8.15;43.58;97733.75;29395;229;63008;-65
2022/03/25 01:16:14;;;;;;;0.50;0.50;;;;;;;8.15;43.51;97739.16;29395;196;63004;-65
2022/03/25 01:16:48;;;;;;;0.50;0.50;;;;;;;8.16;43.59;97729.97;29395;203;63009;-65
2022/03/25 01:17:19;;;;;;;0.50;0.50;;;;;;;8.14;43.43;97729.41;29395;212;63005;-64
2022/03/25 01:17:52;;;;;;;0.50;0.50;;;;;;;8.14;43.44;97732.13;29394;243;64009;-64
2022/03/25 01:18:25;;;;;;;0.50;0.50;;;;;;;8.13;43.56;97733.19;29394;245;64005;-65
2022/03/25 01:19:00;;;;;;;0.50;0.50;;;;;;;8.12;43.75;97732.38;29395;399;63009;-60
2022/03/25 01:19:31;;;;;;;0.50;0.50;;;;;;;8.12;43.53;97731.56;29395;213;63005;-65
2022/03/25 01:20:05;;;;;;;0.50;0.50;;;;;;;8.11;43.51;97727.22;29395;218;63009;-65
2022/03/25 01:20:36;;;;;;;0.50;0.50;;;;;;;8.11;43.79;97727.22;29394;206;64004;-66
2022/03/25 01:21:07;;;;;;;0.50;0.50;;;;;;;8.11;43.77;97732.63;29395;209;63009;-65
2022/03/25 01:21:39;;;;;;;0.50;0.50;;;;;;;8.10;43.57;97734.50;29395;198;63004;-64
2022/03/25 01:22:10;;;;;;;0.50;0.50;;;;;;;8.11;43.81;97735.34;29395;214;63009;-66
2022/03/25 01:22:41;;;;;;;0.50;0.50;;;;;;;8.11;43.76;97738.03;29394;215;64013;-66
2022/03/25 01:23:13;;;;;;;0.50;0.50;;;;;;;8.10;43.61;97725.59;29395;316;63009;-65
2022/03/25 01:23:48;;;;;;;0.50;0.50;;;;;;;8.11;43.58;97727.22;29395;207;63005;-66
2022/03/25 01:24:20;;;;;;;0.50;0.50;;;;;;;8.11;43.52;97727.22;29394;224;64009;-64
2022/03/25 01:24:51;;;;;;;0.50;0.50;;;;;;;8.11;43.55;97728.03;29395;252;63005;-65
2022/03/25 01:25:26;;;;;;;0.50;0.50;;;;;;;8.12;43.31;97728.84;29395;219;63009;-66
2022/03/25 01:25:58;;;;;;;0.50;0.50;;;;;;;8.14;43.58;97732.13;29395;215;63000;-64
2022/03/25 01:26:29;;;;;;;0.57;0.57;;;;;;;8.13;43.36;97730.50;29395;231;63009;-66
2022/03/25 01:27:00;;;;;;;0.50;0.50;;;;;;;8.14;43.05;97726.72;29395;226;63005;-65
2022/03/25 01:27:32;;;;;;;0.50;0.50;;;;;;;8.14;43.09;97734.81;29395;199;63023;-64
2022/03/25 01:28:03;;;;;;;0.50;0.50;;;;;;;8.15;43.09;97728.34;29395;215;63004;-66
2022/03/25 01:28:35;;;;;;;0.50;0.50;;;;;;;8.15;43.08;97722.94;29395;197;63009;-64
2022/03/25 01:29:06;;;;;;;0.50;0.50;;;;;;;8.15;43.15;97734.56;29395;214;63004;-65
2022/03/25 01:29:38;;;;;;;0.50;0.50;;;;;;;8.15;43.07;97729.16;29394;251;64009;-65
2022/03/25 01:30:10;;;;;;;0.50;0.50;;;;;;;8.14;43.37;97729.41;29395;258;63004;-66
2022/03/25 01:30:42;;;;;;;0.50;0.50;;;;;;;8.15;43.24;97733.75;29395;219;63008;-66
2022/03/25 01:31:17;;;;;;;0.50;0.50;;;;;;;8.15;43.32;97731.06;29394;214;64005;-64
2022/03/25 01:31:48;;;;;;;0.50;0.50;;;;;;;8.14;43.24;97732.13;29395;206;63009;-66
2022/03/25 01:32:20;;;;;;;0.50;0.50;;;;;;;8.14;43.43;97732.13;29395;207;63005;-66
2022/03/25 01:32:51;;;;;;;0.50;0.50;;;;;;;8.13;43.52;97730.50;29395;252;63009;-66
2022/03/25 01:33:23;;;;;;;0.60;0.60;;;;;;;8.14;43.23;97726.72;29396;213;63005;-64
2022/03/25 01:33:54;;;;;;;0.50;0.50;;;;;;;8.13;43.17;97725.09;29395;205;63009;-65
2022/03/25 01:34:25;;;;;;;0.50;0.50;;;;;;;8.13;43.24;97735.91;29395;380;63005;-59
2022/03/25 01:34:56;;;;;;;0.50;0.50;;;;;;;8.13;43.25;97733.19;29395;221;63009;-65
2022/03/25 01:35:27;;;;;;;0.50;0.50;;;;;;;8.13;43.10;97727.78;29395;205;63004;-65
2022/03/25 01:36:03;;;;;;;0.50;0.50;;;;;;;8.11;43.21;97732.63;29395;339;63009;-65
2022/03/25 01:36:35;;;;;;;0.50;0.50;;;;;;;8.10;43.19;97731.00;29394;220;64004;-66
2022/03/25 01:37:06;;;;;;;0.50;0.50;;;;;;;8.11;43.41;97732.63;29395;241;63009;-65
2022/03/25 01:37:38;;;;;;;0.50;0.50;;;;;;;8.09;43.10;97735.59;29395;199;63004;-65
2022/03/25 01:38:09;;;;;;;0.50;0.50;;;;;;;8.10;43.37;97733.69;29395;234;63008;-65
2022/03/25 01:38:41;;;;;;;0.50;0.50;;;;;;;8.10;43.13;97731.00;29395;199;63005;-65
2022/03/25 01:39:13;;;;;;;0.50;0.50;;;;;;;8.08;43.35;97732.06;29395;346;63009;-65
2022/03/25 01:39:45;;;;;;;0.50;0.50;;;;;;;8.08;43.14;97729.37;29395;238;63005;-64
2022/03/25 01:40:16;;;;;;;0.50;0.50;;;;;;;8.09;43.20;97735.59;29395;306;63009;-67
2022/03/25 01:40:47;;;;;;;0.50;0.50;;;;;;;8.09;43.09;97730.19;29395;208;63005;-59
2022/03/25 01:41:20;;;;;;;0.50;0.50;;;;;;;8.07;43.19;97725.03;29395;219;63009;-64
2022/03/25 01:41:52;;;;;;;0.50;0.50;;;;;;;8.06;43.23;97734.22;29394;222;64005;-66
2022/03/25 01:42:34;;;;;;;0.50;0.50;;;;;;;8.05;43.10;97732.56;29395;225;63009;-64
2022/03/25 01:43:08;;;;;;;0.50;0.50;;;;;;;8.04;43.08;97727.44;29395;233;63004;-64
2022/03/25 01:43:44;;;;;;;0.50;0.50;;;;;;;8.04;43.28;97735.53;29395;218;63009;-65
2022/03/25 01:44:23;;;;;;;0.50;0.50;;;;;;;8.02;43.06;97730.37;29395;205;63004;-64
2022/03/25 01:44:54;;;;;;;0.50;0.50;;;;;;;8.02;43.13;97729.56;29395;220;63009;-64
2022/03/25 01:45:36;;;;;;;0.50;0.50;;;;;;;8.01;42.97;97736.87;29395;229;63004;-64
2022/03/25 01:46:07;;;;;;;0.60;0.60;;;;;;;7.99;43.16;97725.50;29395;239;63009;-64
2022/03/25 01:46:38;;;;;;;0.50;0.50;;;;;;;7.99;43.01;97736.28;29395;205;63005;-65
2022/03/25 01:47:16;;;;;;;0.60;0.60;;;;;;;7.99;43.18;97730.91;29394;235;64009;-59
2022/03/25 01:47:47;;;;;;;0.50;0.50;;;;;;;7.98;43.03;97723.84;29395;292;63005;-65
2022/03/25 01:48:20;;;;;;;0.50;0.50;;;;;;;7.96;43.02;97726.03;29395;217;63009;-65
2022/03/25 01:48:55;;;;;;;0.50;0.50;;;;;;;7.96;43.39;97736.84;29395;222;63012;-65
2022/03/25 01:49:26;;;;;;;0.50;0.50;;;;;;;7.95;43.54;97732.50;29395;206;63009;-66
2022/03/25 01:50:00;;;;;;;0.50;0.50;;;;;;;7.93;43.73;97731.94;29395;197;63005;-65
2022/03/25 01:50:31;;;;;;;0.50;0.50;;;;;;;7.93;43.89;97726.53;29395;211;63009;-66
2022/03/25 01:51:03;;;;;;;0.50;0.50;;;;;;;7.91;43.69;97723.28;29395;216;63004;-66
2022/03/25 01:51:36;;;;;;;0.50;0.50;;;;;;;7.90;44.10;97729.75;29395;237;63007;-64
2022/03/25 01:52:09;;;;;;;0.60;0.60;;;;;;;7.89;44.06;97730.81;29395;215;63004;-66
2022/03/25 01:52:41;;;;;;;0.50;0.50;;;;;;;7.88;44.12;97733.78;29394;283;64008;-66
2022/03/25 01:53:15;;;;;;;0.50;0.50;;;;;;;7.86;44.28;97728.63;29394;196;64004;-64
2022/03/25 01:53:50;;;;;;;0.50;0.50;;;;;;;7.85;44.46;97736.97;29395;205;63009;-64
2022/03/25 01:54:25;;;;;;;0.50;0.50;;;;;;;7.84;44.23;97727.25;29395;354;63005;-65
2022/03/25 01:55:15;;;;;;;0.50;0.50;;;;;;;7.82;44.43;97734.78;29395;198;63009;-66
2022/03/25 01:55:58;;;;;;;0.50;0.50;;;;;;;7.80;44.54;97726.94;29395;249;63005;-65
2022/03/25 01:56:30;;;;;;;0.50;0.50;;;;;;;7.80;44.60;97732.34;29395;223;63009;-60
2022/03/25 01:57:06;;;;;;;0.60;0.60;;;;;;;7.78;44.78;97734.47;29395;240;63005;-65
2022/03/25 01:57:37;;;;;;;0.50;0.50;;;;;;;7.78;44.56;97731.78;29395;221;63009;-65
2022/03/25 01:58:12;;;;;;;0.50;0.50;;;;;;;7.78;44.46;97725.56;29395;213;63004;-59
2022/03/25 01:58:43;;;;;;;0.50;0.50;;;;;;;7.77;44.55;97732.84;29394;223;64009;-60
2022/03/25 01:59:16;;;;;;;0.50;0.50;;;;;;;7.76;44.40;97733.91;29395;204;63004;-60
2022/03/25 01:59:55;;;;;;;0.50;0.50;;;;;;;7.76;44.20;97731.22;29394;207;64009;-60
2022/03/25 02:00:30;;;;;;;0.50;0.50;;;;;;;7.76;44.13;97727.69;29395;226;63011;-59
2022/03/25 02:01:04;;;;;;;0.50;0.50;;;;;;;7.76;44.23;97725.81;29395;198;63009;-59
2022/03/25 02:01:36;;;;;;;0.50;0.50;;;;;;;7.75;44.14;97734.97;29395;224;63005;-65
2022/03/25 02:02:09;;;;;;;0.50;0.50;;;;;;;7.76;44.20;97733.91;29395;223;63009;-60
2022/03/25 02:02:40;;;;;;;0.50;0.50;;;;;;;7.76;44.11;97725.00;29395;237;63005;-59
2022/03/25 02:03:12;;;;;;;0.50;0.50;;;;;;;7.75;44.06;97729.56;29395;238;63009;-59
2022/03/25 02:03:44;;;;;;;0.50;0.50;;;;;;;7.76;44.19;97736.63;29395;209;63005;-65
2022/03/25 02:04:17;;;;;;;0.50;0.50;;;;;;;7.76;44.14;97733.91;29395;249;63026;-60
2022/03/25 02:04:49;;;;;;;0.50;0.50;;;;;;;7.77;43.95;97732.03;29395;251;63005;-59
2022/03/25 02:05:20;;;;;;;0.57;0.57;;;;;;;7.76;43.92;97735.78;29394;253;64009;-59
2022/03/25 02:05:52;;;;;;;0.50;0.50;;;;;;;7.76;44.19;97735.78;29395;220;63008;-65
2022/03/25 02:06:23;;;;;;;0.50;0.50;;;;;;;7.74;44.14;97730.66;29395;234;63009;-63
2022/03/25 02:06:56;;;;;;;0.60;0.60;;;;;;;7.76;44.53;97735.78;29395;202;63004;-65
2022/03/25 02:07:27;;;;;;;0.50;0.50;;;;;;;7.75;44.28;97740.38;29395;233;63009;-65
2022/03/25 02:07:58;;;;;;;0.50;0.50;;;;;;;7.74;44.57;97733.34;29395;197;63004;-59
2022/03/25 02:08:32;;;;;;;0.50;0.50;;;;;;;7.74;45.08;97734.16;29395;239;63005;-60
2022/03/25 02:09:06;;;;;;;0.50;0.50;;;;;;;7.73;45.00;97737.94;29395;202;63005;-60
2022/03/25 02:09:37;;;;;;;0.50;0.50;;;;;;;7.72;45.19;97730.91;29395;238;63009;-60
2022/03/25 02:10:09;;;;;;;0.60;0.60;;;;;;;7.73;44.94;97734.41;29395;255;63005;-63
2022/03/25 02:10:42;;;;;;;0.50;0.50;;;;;;;7.72;45.02;97732.78;29394;254;64009;-61
2022/03/25 02:11:13;;;;;;;0.50;0.50;;;;;;;7.71;44.68;97734.66;29395;295;63005;-60
2022/03/25 02:11:45;;;;;;;0.50;0.50;;;;;;;7.71;44.84;97736.56;29373;229;63009;-64
2022/03/25 02:12:17;;;;;;;0.50;0.50;;;;;;;7.70;44.75;97732.22;29395;239;63005;-65
2022/03/25 02:12:49;;;;;;;0.50;0.50;;;;;;;7.69;44.98;97741.38;29395;232;63009;-59
2022/03/25 02:13:23;;;;;;;0.50;0.50;;;;;;;7.68;44.68;97735.16;29394;202;64004;-60
2022/03/25 02:13:55;;;;;;;0.50;0.50;;;;;;;7.67;44.69;97738.94;29395;249;63009;-65
2022/03/25 02:14:26;;;;;;;0.62;0.62;;;;;;;7.68;44.73;97739.75;29395;239;63004;-59
2022/03/25 02:14:57;;;;;;;0.50;0.50;;;;;;;7.66;44.92;97733.78;29395;221;63009;-61
2022/03/25 02:15:39;;;;;;;0.50;0.50;;;;;;;7.65;44.59;97734.84;29395;383;63004;-59
2022/03/25 02:16:11;;;;;;;0.50;0.50;;;;;;;7.64;44.75;97735.94;29395;209;63009;-60
2022/03/25 02:16:45;;;;;;;0.50;0.50;;;;;;;7.64;44.70;97733.22;29395;216;63005;-60
2022/03/25 02:17:16;;;;;;;0.50;0.50;;;;;;;7.63;44.73;97742.41;29395;210;63009;-60
2022/03/25 02:17:47;;;;;;;0.50;0.50;;;;;;;7.62;44.68;97741.59;29395;294;63005;-61
2022/03/25 02:18:19;;;;;;;0.50;0.50;;;;;;;7.62;44.52;97735.41;29394;210;64009;-63
2022/03/25 02:18:50;;;;;;;0.50;0.50;;;;;;;7.61;44.64;97733.75;29395;197;63005;-60
2022/03/25 02:19:24;;;;;;;0.50;0.50;;;;;;;7.60;44.71;97732.94;29395;208;63009;-60
2022/03/25 02:19:56;;;;;;;0.50;0.50;;;;;;;7.61;44.58;97728.34;29395;243;63004;-65
2022/03/25 02:20:27;;;;;;;0.50;0.50;;;;;;;7.60;44.58;97732.94;29395;204;63009;-60
2022/03/25 02:20:59;;;;;;;0.50;0.50;;;;;;;7.60;44.74;97737.53;29395;203;63004;-59
2022/03/25 02:21:33;;;;;;;0.50;0.50;;;;;;;7.60;44.63;97732.13;29394;276;64009;-60
2022/03/25 02:22:08;;;;;;;0.50;0.50;;;;;;;7.60;44.31;97729.44;29395;235;63004;-65
2022/03/25 02:22:40;;;;;;;0.50;0.50;;;;;;;7.60;44.41;97732.94;29395;224;63008;-60
2022/03/25 02:23:13;;;;;;;0.50;0.50;;;;;;;7.60;44.20;97737.53;29395;216;63004;-60
2022/03/25 02:23:45;;;;;;;0.50;0.50;;;;;;;7.60;44.38;97732.94;29395;279;63009;-65
2022/03/25 02:24:17;;;;;;;0.50;0.50;;;;;;;7.61;44.35;97733.75;29395;219;63005;-60
2022/03/25 02:24:49;;;;;;;0.57;0.57;;;;;;;7.61;44.34;97733.75;29395;239;63009;-59
2022/03/25 02:25:22;;;;;;;0.50;0.50;;;;;;;7.60;44.27;97732.94;29395;206;63005;-61
2022/03/25 02:25:54;;;;;;;0.50;0.50;;;;;;;7.61;44.05;97733.75;29394;231;64009;-64
2022/03/25 02:26:27;;;;;;;0.50;0.50;;;;;;;7.60;44.41;97732.13;29394;226;64005;-60
2022/03/25 02:27:00;;;;;;;0.50;0.50;;;;;;;7.60;44.40;97737.53;29395;253;63009;-59
2022/03/25 02:27:36;;;;;;;0.50;0.50;;;;;;;7.60;44.00;97734.84;29395;204;63004;-66
2022/03/25 02:28:08;;;;;;;0.50;0.50;;;;;;;7.59;44.21;97733.19;29395;235;63009;-60
2022/03/25 02:28:39;;;;;;;0.50;0.50;;;;;;;7.58;44.04;97732.38;29395;250;63004;-60
2022/03/25 02:29:17;;;;;;;0.50;0.50;;;;;;;7.58;44.24;97734.25;29395;198;63009;-59
2022/03/25 02:29:49;;;;;;;0.50;0.50;;;;;;;7.57;44.13;97729.94;29395;254;63004;-59
2022/03/25 02:30:21;;;;;;;0.50;0.50;;;;;;;7.56;44.26;97742.63;29395;261;63009;-66
2022/03/25 02:30:52;;;;;;;0.50;0.50;;;;;;;7.56;44.17;97733.69;29395;207;63005;-61
2022/03/25 02:31:23;;;;;;;0.50;0.50;;;;;;;7.56;44.29;97736.41;29394;223;64009;-59
2022/03/25 02:31:54;;;;;;;0.50;0.50;;;;;;;7.54;44.39;97741.25;29395;239;63005;-60
2022/03/25 02:32:26;;;;;;;0.50;0.50;;;;;;;7.53;45.06;97736.91;29395;249;63009;-66
2022/03/25 02:33:01;;;;;;;0.50;0.50;;;;;;;7.52;45.03;97737.97;29395;207;63005;-61
2022/03/25 02:33:36;;;;;;;0.50;0.50;;;;;;;7.51;45.37;97739.03;29395;218;63009;-60
2022/03/25 02:34:09;;;;;;;0.50;0.50;;;;;;;7.50;45.24;97738.22;29395;245;63005;-65
2022/03/25 02:34:40;;;;;;;0.50;0.50;;;;;;;7.50;45.47;97742.81;29395;249;63009;-64
2022/03/25 02:35:12;;;;;;;0.60;0.60;;;;;;;7.49;45.44;97736.59;29395;240;63004;-60
2022/03/25 02:35:46;;;;;;;0.50;0.50;;;;;;;7.48;45.22;97739.53;29394;202;64009;-65
2022/03/25 02:36:19;;;;;;;0.52;0.52;;;;;;;7.46;45.33;97736.28;29395;227;63009;-59
2022/03/25 02:36:51;;;;;;;0.50;0.50;;;;;;;7.46;45.33;97742.50;29394;306;64009;-65